BBC Delaware — V2CN9 — position and weather

sailwx.info

Track history (hours):
 
Tides and Currents Weather Stations Pressure Air Temp Water Temp Dewpoint Dewpoint Depression Visibility Wind Speed Wind Dir Waves Ship Positions

BBC Delaware

Last reported at 2015-Jun-19 20:31 UTC. Time now 2015-Jul-08 02:16 UTC.
Position S 30°19' E 030°54'.
Warning: this ship's position is 18 days out of date.

Length 138 m; draft 6.5 m.

Type: Cargo ship. MMSI: 305057000.

Date/timePositionNaut miles runAvg speedWind from/ knotsBaromVisibWave heightAir tempDewpointWater temp
2015-Jun-19 20:31S 30°19' E 030°54'1111.4
2015-Jun-19 19:33S 30°09' E 030°59'1211.7
2015-Jun-19 18:33S 29°58' E 031°05'6 5.7
2015-Jun-19 17:33S 29°53' E 031°03'0 0.2
2015-Jun-19 16:31S 29°52' E 031°03'0 0.0
2015-Jun-19 15:31S 29°52' E 031°03'0 0.0
2015-Jun-19 14:31S 29°52' E 031°03'0 0.0
2015-Jun-19 13:32S 29°52' E 031°03'0 0.0
2015-Jun-19 12:33S 29°52' E 031°03'0 0.0
2015-Jun-19 11:33S 29°52' E 031°03'0 0.0
2015-Jun-19 10:33S 29°52' E 031°03'1 1.4
2015-Jun-19 09:33S 29°52' E 031°04'3 3.1
2015-Jun-19 08:33S 29°49' E 031°06'1 0.8
2015-Jun-19 07:33S 29°48' E 031°06'1 1.0
2015-Jun-19 06:33S 29°47' E 031°06'3 2.8
2015-Jun-19 05:33S 29°48' E 031°09'1211.9
2015-Jun-19 04:33S 29°40' E 031°20'1211.7
2015-Jun-19 03:33S 29°33' E 031°30'1211.7
2015-Jun-19 02:33S 29°26' E 031°40'  
Track history (hours):
 
Tides and Currents Weather Stations Pressure Air Temp Water Temp Dewpoint Dewpoint Depression Visibility Wind Speed Wind Dir Waves Ship Positions

BBC Delaware

Last reported at 2015-Jun-19 20:31 UTC. Time now 2015-Jul-08 02:16 UTC.
Position S 30°19' E 030°54'.
Warning: this ship's position is 18 days out of date.

Length 138 m; draft 6.5 m.

Type: Cargo ship. MMSI: 305057000.

Date/timePositionNaut miles runAvg speedWind from/ knotsBaromVisibWave heightAir tempDewpointWater temp
2015-Jun-19 20:31S 30°19' E 030°54'1111.4
2015-Jun-19 19:33S 30°09' E 030°59'1211.7
2015-Jun-19 18:33S 29°58' E 031°05'6 5.7
2015-Jun-19 17:33S 29°53' E 031°03'0 0.2
2015-Jun-19 16:31S 29°52' E 031°03'0 0.0
2015-Jun-19 15:31S 29°52' E 031°03'0 0.0
2015-Jun-19 14:31S 29°52' E 031°03'0 0.0
2015-Jun-19 13:32S 29°52' E 031°03'0 0.0
2015-Jun-19 12:33S 29°52' E 031°03'0 0.0
2015-Jun-19 11:33S 29°52' E 031°03'0 0.0
2015-Jun-19 10:33S 29°52' E 031°03'1 1.4
2015-Jun-19 09:33S 29°52' E 031°04'3 3.1
2015-Jun-19 08:33S 29°49' E 031°06'1 0.8
2015-Jun-19 07:33S 29°48' E 031°06'1 1.0
2015-Jun-19 06:33S 29°47' E 031°06'3 2.8
2015-Jun-19 05:33S 29°48' E 031°09'1211.9
2015-Jun-19 04:33S 29°40' E 031°20'1211.7
2015-Jun-19 03:33S 29°33' E 031°30'1211.7
2015-Jun-19 02:33S 29°26' E 031°40'  

Dump ship's entire track history